Time;durP1;ratioP1;P1;durP2;ratioP2;P2;SDS_P1;SDS_P2;PMS_P1;PMS_P2;Temp;Humidity;BMP_temperature;BMP_pressure;BME280_temperature;BME280_humidity;BME280_pressure;Samples;Min_cycle;Max_cycle;Signal;HPM_P1;HPM_P2
2022/09/07 04:21:34;;;;;;;9.90;3.97;;;19.90;95.10;;;;;;5071483;23;20041;-69
2022/09/07 04:23:59;;;;;;;7.45;3.65;;;19.90;95.10;;;;;;5049837;28;20044;-70
2022/09/07 04:26:28;;;;;;;8.45;3.78;;;19.90;95.10;;;;;;5040767;28;20029;-69
2022/09/07 04:28:54;;;;;;;7.65;3.67;;;19.90;95.10;;;;;;5050435;28;20021;-68
2022/09/07 04:31:20;;;;;;;7.57;3.30;;;19.90;95.10;;;;;;5046358;28;20491;-69
2022/09/07 04:33:47;;;;;;;6.78;3.60;;;19.90;95.10;;;;;;5040813;28;20025;-69
2022/09/07 04:36:14;;;;;;;8.43;3.78;;;19.90;95.10;;;;;;5047865;28;20395;-69
2022/09/07 04:38:40;;;;;;;6.55;3.95;;;19.90;95.10;;;;;;5048932;28;20017;-68
2022/09/07 04:41:13;;;;;;;14.60;3.85;;;19.90;95.10;;;;;;5031916;28;20090;-71
2022/09/07 04:43:42;;;;;;;8.60;4.55;;;19.90;95.30;;;;;;5050164;28;20102;-68
2022/09/07 04:46:23;;;;;;;9.70;4.22;;;19.90;95.10;;;;;;5047945;28;20351;-69
2022/09/07 04:48:54;;;;;;;7.32;3.80;;;19.90;95.00;;;;;;5042502;28;20040;-69
2022/09/07 04:51:22;;;;;;;19.77;4.53;;;19.90;95.00;;;;;;5049378;28;20044;-69
2022/09/07 04:53:50;;;;;;;14.13;4.47;;;19.90;95.00;;;;;;5049692;28;20151;-68
2022/09/07 04:56:16;;;;;;;9.57;4.13;;;19.90;95.00;;;;;;5049163;28;20025;-69
2022/09/07 04:58:43;;;;;;;8.30;4.45;;;19.90;95.00;;;;;;5049566;28;20017;-69
2022/09/07 05:01:08;;;;;;;9.93;4.53;;;19.90;95.00;;;;;;5049753;28;20032;-68
2022/09/07 05:03:37;;;;;;;7.18;4.10;;;19.90;95.00;;;;;;5028905;28;20029;-69
2022/09/07 05:06:04;;;;;;;6.20;3.80;;;19.90;95.00;;;;;;5030697;28;20025;-69
2022/09/07 05:08:35;;;;;;;9.27;3.90;;;19.90;95.00;;;;;;5049510;28;20048;-68
2022/09/07 05:11:00;;;;;;;6.55;3.20;;;19.90;95.00;;;;;;5031533;28;20025;-68
2022/09/07 05:13:28;;;;;;;7.85;3.25;;;19.90;95.00;;;;;;5040735;28;20043;-70
2022/09/07 05:15:54;;;;;;;7.65;3.30;;;19.90;95.00;;;;;;5048635;28;20052;-68
2022/09/07 05:18:20;;;;;;;9.75;3.10;;;19.90;95.00;;;;;;5039834;28;20108;-68
2022/09/07 05:20:45;;;;;;;7.00;2.65;;;19.90;95.00;;;;;;5027929;28;20402;-68
2022/09/07 05:23:11;;;;;;;5.82;3.03;;;19.90;95.00;;;;;;5020047;28;20486;-68
2022/09/07 05:32:34;;;;;;;10.30;2.87;;;19.90;95.00;;;;;;4985065;28;20566;-69
2022/09/07 05:35:00;;;;;;;5.57;2.20;;;19.90;95.00;;;;;;4986583;28;20042;-68
2022/09/07 05:37:25;;;;;;;12.52;3.38;;;19.90;95.00;;;;;;4988339;28;20062;-70
2022/09/07 05:39:53;;;;;;;8.82;3.33;;;19.90;95.00;;;;;;4991808;28;20022;-69
2022/09/07 05:42:19;;;;;;;6.22;2.88;;;19.90;95.00;;;;;;4991460;28;20035;-69
2022/09/07 05:44:44;;;;;;;6.78;2.75;;;19.90;95.00;;;;;;4991372;28;20109;-68
2022/09/07 05:47:11;;;;;;;10.38;3.53;;;19.90;95.00;;;;;;4990817;28;20034;-68
2022/09/07 05:49:37;;;;;;;5.93;2.60;;;20.00;95.00;;;;;;4981899;28;20035;-68
2022/09/07 05:52:02;;;;;;;9.23;3.25;;;19.90;95.00;;;;;;4991513;28;20045;-68
2022/09/07 06:01:05;;;;;;;8.55;3.70;;;20.00;95.00;;;;;;5052439;28;20059;-69
2022/09/07 06:03:33;;;;;;;12.23;3.60;;;20.00;94.90;;;;;;5045008;28;20056;-69
2022/09/07 06:06:13;;;;;;;7.32;3.50;;;20.00;94.90;;;;;;5043375;28;20079;-69
2022/09/07 06:08:43;;;;;;;9.73;3.90;;;20.00;94.90;;;;;;5052578;28;20093;-69
2022/09/07 06:11:12;;;;;;;6.25;3.75;;;20.00;94.90;;;;;;5052841;28;20041;-69
2022/09/07 06:13:38;;;;;;;7.03;3.72;;;20.10;94.90;;;;;;5052586;28;20039;-69
2022/09/07 06:16:06;;;;;;;9.07;4.00;;;20.10;94.90;;;;;;5034393;28;20024;-69
2022/09/07 06:18:37;;;;;;;14.80;3.78;;;20.10;94.90;;;;;;5045168;28;20061;-69
2022/09/07 06:21:03;;;;;;;9.43;3.13;;;20.10;94.90;;;;;;5040109;28;20061;-69
2022/09/07 06:23:34;;;;;;;4.70;2.85;;;20.10;94.90;;;;;;5031126;28;20020;-69
2022/09/07 06:25:59;;;;;;;13.43;4.05;;;20.20;94.90;;;;;;5022102;28;20091;-69
2022/09/07 06:28:34;;;;;;;13.15;4.50;;;20.20;94.90;;;;;;5048314;28;20494;-68
2022/09/07 06:31:14;;;;;;;10.93;4.50;;;20.20;94.90;;;;;;5044326;28;20025;-69
2022/09/07 06:33:41;;;;;;;10.25;4.00;;;20.20;94.90;;;;;;5042331;28;20467;-69
2022/09/07 06:36:12;;;;;;;5.47;3.33;;;20.20;94.90;;;;;;5039104;28;20115;-69
2022/09/07 06:38:39;;;;;;;16.60;4.70;;;20.30;94.90;;;;;;5040522;28;20113;-69
2022/09/07 06:41:13;;;;;;;8.88;4.25;;;20.30;94.90;;;;;;5044214;28;20025;-69
2022/09/07 06:43:39;;;;;;;8.95;4.20;;;20.40;94.90;;;;;;5052014;28;20040;-69
2022/09/07 06:46:05;;;;;;;7.15;3.67;;;20.40;94.90;;;;;;5051273;28;20074;-68
2022/09/07 06:48:32;;;;;;;13.32;3.65;;;20.40;94.90;;;;;;5049542;28;20025;-69
2022/09/07 06:51:29;;;;;;;7.78;3.80;;;20.40;95.00;;;;;;5051833;28;20079;-69
2022/09/07 06:53:56;;;;;;;6.80;4.07;;;20.40;95.00;;;;;;5039651;28;20040;-69
2022/09/07 06:56:22;;;;;;;9.45;4.05;;;20.40;95.00;;;;;;5051453;28;20029;-68
2022/09/07 06:58:55;;;;;;;11.32;3.97;;;20.50;95.00;;;;;;5051788;28;20060;-68
2022/09/07 07:01:23;;;;;;;10.63;4.60;;;20.50;95.00;;;;;;5051518;28;20021;-68
2022/09/07 07:03:50;;;;;;;12.27;4.40;;;20.50;95.00;;;;;;5049041;28;20120;-69
2022/09/07 07:09:44;;;;;;;11.90;4.38;;;20.50;95.00;;;;;;5034275;28;20045;-69
2022/09/07 07:12:16;;;;;;;6.25;3.72;;;20.50;95.00;;;;;;5053310;28;20052;-68
2022/09/07 07:14:42;;;;;;;6.45;4.30;;;20.60;95.00;;;;;;5035188;28;20029;-69
2022/09/07 07:17:08;;;;;;;9.20;4.70;;;20.60;95.10;;;;;;5032901;28;20075;-69
2022/09/07 07:19:33;;;;;;;9.98;4.43;;;20.60;95.10;;;;;;5042523;28;20370;-68
2022/09/07 07:21:59;;;;;;;6.75;4.43;;;20.50;95.00;;;;;;5042460;28;20482;-68
2022/09/07 07:24:24;;;;;;;12.30;4.70;;;20.60;95.00;;;;;;5051702;28;20032;-68
2022/09/07 07:26:50;;;;;;;11.15;4.22;;;20.60;95.10;;;;;;5050510;28;20044;-68
2022/09/07 07:29:16;;;;;;;9.93;4.95;;;20.50;95.00;;;;;;5051416;28;20021;-68
2022/09/07 07:31:42;;;;;;;10.45;5.03;;;20.50;95.00;;;;;;5050941;28;20073;-69
2022/09/07 07:34:07;;;;;;;8.55;4.43;;;20.50;95.00;;;;;;5038589;28;20379;-69
2022/09/07 07:36:34;;;;;;;12.20;4.75;;;20.50;95.00;;;;;;5028043;28;20025;-69
2022/09/07 07:39:00;;;;;;;13.65;4.93;;;20.50;95.00;;;;;;5042776;28;20027;-69
2022/09/07 07:41:30;;;;;;;7.30;4.15;;;20.50;95.00;;;;;;5033458;28;20024;-69
2022/09/07 07:43:58;;;;;;;10.93;5.07;;;20.50;95.00;;;;;;5032872;28;20424;-69
2022/09/07 07:46:25;;;;;;;9.02;4.35;;;20.60;95.10;;;;;;5032211;28;20040;-69
2022/09/07 07:48:51;;;;;;;7.78;4.25;;;20.60;95.10;;;;;;5048657;28;20025;-69
2022/09/07 07:51:17;;;;;;;13.23;4.13;;;20.50;95.10;;;;;;5039242;28;20040;-68
2022/09/07 07:53:43;;;;;;;12.40;4.88;;;20.60;95.10;;;;;;5047437;28;20116;-69
2022/09/07 07:56:10;;;;;;;9.25;4.30;;;20.60;95.10;;;;;;5037175;28;20025;-69
2022/09/07 07:58:36;;;;;;;9.35;4.30;;;20.60;95.10;;;;;;5037977;28;20061;-69
2022/09/07 08:01:05;;;;;;;8.45;5.32;;;20.50;95.10;;;;;;5049915;28;20021;-68
2022/09/07 08:03:34;;;;;;;12.13;5.10;;;20.60;95.10;;;;;;5050605;28;20493;-69
2022/09/07 08:06:07;;;;;;;11.20;5.13;;;20.60;95.10;;;;;;5046285;28;20115;-69
2022/09/07 08:08:35;;;;;;;9.55;5.38;;;20.60;95.10;;;;;;5037681;28;20036;-69
2022/09/07 08:11:03;;;;;;;12.80;4.95;;;20.60;95.20;;;;;;5049513;28;20041;-69
2022/09/07 08:13:32;;;;;;;7.63;4.47;;;20.70;95.20;;;;;;5050600;28;20052;-69
2022/09/07 08:15:59;;;;;;;12.93;4.85;;;20.70;95.20;;;;;;5049413;28;20402;-69
2022/09/07 08:18:25;;;;;;;8.00;5.32;;;20.70;95.20;;;;;;5050712;28;20450;-69
2022/09/07 08:20:50;;;;;;;9.95;4.45;;;20.70;95.20;;;;;;5041280;28;20116;-69
2022/09/07 08:23:19;;;;;;;15.20;5.10;;;20.80;95.20;;;;;;5025139;28;20024;-69
2022/09/07 08:25:53;;;;;;;10.13;4.30;;;20.80;95.20;;;;;;5049015;28;20025;-70
2022/09/07 08:28:20;;;;;;;5.22;2.67;;;20.90;95.30;;;;;;5043367;28;20449;-69
2022/09/07 08:30:46;;;;;;;7.43;3.65;;;20.90;95.30;;;;;;5032176;28;20119;-69
2022/09/07 08:33:12;;;;;;;9.15;4.20;;;20.90;95.30;;;;;;5041867;28;20075;-69
2022/09/07 08:35:38;;;;;;;6.53;3.97;;;21.00;95.30;;;;;;5042092;28;20025;-69
2022/09/07 08:38:04;;;;;;;8.00;3.72;;;21.00;95.30;;;;;;5041774;28;20021;-69
2022/09/07 08:40:31;;;;;;;12.30;4.22;;;21.10;95.30;;;;;;5049386;28;20024;-70
2022/09/07 08:43:38;;;;;;;11.40;4.53;;;21.10;95.20;;;;;;5049590;28;20029;-69
2022/09/07 08:46:33;;;;;;;10.52;3.97;;;21.20;95.20;;;;;;5028577;28;20029;-69
2022/09/07 08:49:02;;;;;;;11.77;3.92;;;21.20;95.20;;;;;;5031796;28;20029;-69
2022/09/07 08:51:42;;;;;;;8.02;3.63;;;21.30;95.10;;;;;;5043426;28;20116;-69
2022/09/07 08:54:10;;;;;;;;;;;21.30;95.10;;;;;;5041088;28;20477;-69
2022/09/07 08:56:41;;;;;;;5.07;3.00;;;21.30;95.00;;;;;;5049159;28;19905;-69
2022/09/07 08:59:23;;;;;;;9.43;3.58;;;21.40;94.90;;;;;;5040321;28;20020;-69
2022/09/07 09:01:48;;;;;;;7.45;3.33;;;21.40;94.90;;;;;;5040629;28;20079;-69
2022/09/07 09:04:25;;;;;;;7.38;3.08;;;21.50;94.80;;;;;;5042131;28;20013;-69
2022/09/07 09:07:06;;;;;;;8.82;2.85;;;21.50;94.80;;;;;;5040959;28;20399;-69
2022/09/07 09:10:07;;;;;;;8.15;3.50;;;21.50;94.70;;;;;;5043417;28;20033;-69
2022/09/07 09:13:17;;;;;;;16.60;2.95;;;21.60;94.70;;;;;;5042339;28;20128;-69
2022/09/07 09:15:43;;;;;;;8.45;2.78;;;21.60;94.60;;;;;;5001756;28;20026;-69
2022/09/07 09:18:21;;;;;;;5.70;2.55;;;21.60;94.50;;;;;;4991424;28;20036;-69
2022/09/07 09:20:53;;;;;;;8.25;2.90;;;21.60;94.50;;;;;;5006813;28;20065;-69
2022/09/07 09:23:23;;;;;;;8.05;2.78;;;21.70;94.40;;;;;;5007553;28;20022;-69
2022/09/07 09:26:12;;;;;;;8.90;3.25;;;21.70;94.40;;;;;;4990489;28;20026;-69
2022/09/07 09:28:38;;;;;;;8.55;2.50;;;21.70;94.40;;;;;;5008243;28;20025;-70
2022/09/07 09:34:30;;;;;;;11.65;3.30;;;21.70;94.40;;;;;;5008661;28;20085;-69
2022/09/07 09:36:56;;;;;;;8.02;3.17;;;21.70;94.30;;;;;;5005953;28;20117;-69
2022/09/07 09:40:06;;;;;;;9.57;2.45;;;21.70;94.40;;;;;;4991943;28;20173;-69
2022/09/07 09:42:34;;;;;;;5.40;3.13;;;21.70;94.30;;;;;;5000712;28;20022;-69
2022/09/07 09:45:11;;;;;;;6.22;2.88;;;21.70;94.40;;;;;;5007153;28;20072;-69
2022/09/07 09:48:09;;;;;;;6.28;2.85;;;21.70;94.40;;;;;;5013093;28;20045;-69
2022/09/07 09:51:17;;;;;;;6.65;2.95;;;21.70;94.40;;;;;;5029794;28;20041;-69
2022/09/07 09:54:28;;;;;;;11.80;3.03;;;21.70;94.30;;;;;;5032598;28;20025;-69
2022/09/07 09:56:55;;;;;;;11.90;2.97;;;21.60;94.30;;;;;;5035681;28;20029;-69
2022/09/07 10:03:06;;;;;;;5.50;2.78;;;21.60;94.30;;;;;;5050252;28;20394;-69
2022/09/07 10:05:47;;;;;;;16.05;3.10;;;21.60;94.30;;;;;;5041956;28;20025;-69
2022/09/07 10:08:17;;;;;;;7.63;2.70;;;21.60;94.30;;;;;;5038380;28;20021;-69
2022/09/07 10:11:14;;;;;;;;;;;21.60;94.30;;;;;;5043548;28;20043;-69
2022/09/07 10:13:56;;;;;;;5.90;2.83;;;21.60;94.30;;;;;;4987196;28;19961;-69
2022/09/07 10:16:41;;;;;;;8.85;3.03;;;21.60;94.30;;;;;;4984591;28;20165;-69
2022/09/07 10:19:23;;;;;;;5.57;2.70;;;21.60;94.30;;;;;;4987084;28;20022;-69
2022/09/07 10:21:57;;;;;;;6.18;2.60;;;21.60;94.30;;;;;;4986734;28;20244;-69
2022/09/07 10:24:30;;;;;;;5.78;2.67;;;21.50;94.30;;;;;;5007732;28;20093;-69
2022/09/07 10:26:56;;;;;;;7.50;2.78;;;21.60;94.30;;;;;;5009464;28;20022;-69
2022/09/07 10:29:33;;;;;;;6.95;2.80;;;21.50;94.30;;;;;;5010695;28;20064;-69
2022/09/07 10:32:22;;;;;;;7.90;2.67;;;21.50;94.30;;;;;;5010500;28;20026;-69
2022/09/07 10:35:07;;;;;;;10.48;2.55;;;21.50;94.30;;;;;;5005013;28;20032;-69
2022/09/07 10:37:49;;;;;;;6.43;2.53;;;21.50;94.40;;;;;;5001950;28;20042;-69
2022/09/07 10:40:46;;;;;;;7.25;2.30;;;21.50;94.40;;;;;;5010556;28;20499;-69
2022/09/07 10:43:24;;;;;;;5.13;2.40;;;21.50;94.40;;;;;;5009510;28;20561;-69
2022/09/07 10:46:09;;;;;;;9.68;2.75;;;21.50;94.40;;;;;;5008992;28;20029;-69
2022/09/07 10:48:50;;;;;;;6.70;2.13;;;21.50;94.50;;;;;;5002452;28;20026;-69
2022/09/07 10:51:22;;;;;;;8.88;2.38;;;21.50;94.50;;;;;;5048871;28;20103;-69
2022/09/07 10:54:08;;;;;;;7.75;2.40;;;21.50;94.50;;;;;;5038758;28;20053;-69
2022/09/07 10:56:46;;;;;;;5.50;2.38;;;21.50;94.50;;;;;;5031526;28;20021;-70
2022/09/07 10:59:53;;;;;;;13.85;2.63;;;21.50;94.60;;;;;;5049158;28;20482;-69
2022/09/07 11:02:39;;;;;;;8.18;2.40;;;21.40;94.50;;;;;;5031034;28;20063;-69
2022/09/07 11:05:29;;;;;;;2.88;1.80;;;21.40;94.50;;;;;;5051319;28;20021;-68
2022/09/07 11:08:40;;;;;;;11.23;2.95;;;21.40;94.50;;;;;;5034061;28;20125;-69
2022/09/07 11:11:40;;;;;;;5.75;2.50;;;21.40;94.50;;;;;;5047694;28;20041;-69
2022/09/07 11:14:16;;;;;;;5.32;2.80;;;21.40;94.50;;;;;;5048373;28;20206;-69
2022/09/07 11:17:00;;;;;;;7.97;1.88;;;21.40;94.50;;;;;;5042703;28;20051;-69
2022/09/07 11:19:46;;;;;;;4.60;1.95;;;21.50;94.60;;;;;;5042536;28;20241;-69
2022/09/07 11:22:23;;;;;;;6.40;2.35;;;21.40;94.60;;;;;;5051451;28;20037;-69
2022/09/07 11:25:18;;;;;;;1.80;1.70;;;21.40;94.60;;;;;;5041980;28;20044;-69
2022/09/07 11:27:49;;;;;;;12.90;2.25;;;21.40;94.60;;;;;;5024894;28;20064;-68
2022/09/07 11:30:19;;;;;;;5.13;2.00;;;21.40;94.60;;;;;;5048053;28;20390;-69
2022/09/07 11:32:54;;;;;;;4.05;2.15;;;21.40;94.60;;;;;;5033545;28;20478;-69
2022/09/07 11:35:23;;;;;;;2.63;1.80;;;21.40;94.60;;;;;;5048139;28;20025;-69
2022/09/07 11:37:58;;;;;;;13.55;2.05;;;21.40;94.60;;;;;;5050568;28;20470;-69
2022/09/07 11:40:48;;;;;;;6.30;1.80;;;21.40;94.60;;;;;;5041318;28;20052;-69
2022/09/07 11:43:34;;;;;;;3.42;1.83;;;21.40;94.60;;;;;;5029979;28;20025;-68
2022/09/07 11:46:11;;;;;;;4.70;1.80;;;21.40;94.60;;;;;;5045029;28;20125;-68
2022/09/07 11:48:56;;;;;;;4.68;2.17;;;21.40;94.70;;;;;;5042806;28;20028;-69
2022/09/07 11:51:43;;;;;;;4.15;2.20;;;21.40;94.60;;;;;;5023447;28;20045;-69
2022/09/07 11:54:38;;;;;;;4.65;2.42;;;21.40;94.70;;;;;;5037774;28;20518;-69
2022/09/07 11:57:29;;;;;;;4.13;2.17;;;21.40;94.70;;;;;;5024628;28;20017;-68
2022/09/07 12:00:34;;;;;;;8.05;2.13;;;21.40;94.70;;;;;;5021483;28;20375;-68
2022/09/07 12:03:29;;;;;;;9.88;2.65;;;21.40;95.00;;;;;;4990034;28;20033;-68
2022/09/07 12:06:37;;;;;;;3.85;2.10;;;21.40;94.70;;;;;;5014875;28;20021;-69
2022/09/07 12:09:22;;;;;;;5.22;1.90;;;21.40;94.70;;;;;;4989332;28;20060;-68
2022/09/07 12:12:22;;;;;;;2.40;1.58;;;21.40;94.70;;;;;;5025183;28;20029;-69
2022/09/07 12:15:15;;;;;;;5.40;1.90;;;21.40;94.60;;;;;;5021086;28;20386;-68
2022/09/07 12:17:59;;;;;;;4.07;1.70;;;21.40;94.60;;;;;;5050674;28;20052;-68
2022/09/07 12:20:38;;;;;;;3.45;2.40;;;21.50;94.60;;;;;;5050266;28;20074;-68
2022/09/07 12:23:16;;;;;;;8.77;2.13;;;21.40;94.60;;;;;;5024291;28;20029;-68
2022/09/07 12:25:47;;;;;;;2.85;1.48;;;21.40;94.60;;;;;;5039769;28;20032;-68
2022/09/07 12:28:23;;;;;;;3.38;1.67;;;21.40;94.60;;;;;;5050522;28;20021;-68
2022/09/07 12:30:58;;;;;;;6.85;2.33;;;21.40;94.60;;;;;;5041996;28;20036;-68
2022/09/07 12:33:32;;;;;;;2.65;1.45;;;21.40;94.50;;;;;;5041967;28;20480;-69
2022/09/07 12:35:59;;;;;;;5.63;1.85;;;21.40;94.50;;;;;;5039926;28;20020;-68
2022/09/07 12:38:31;;;;;;;10.00;2.47;;;21.50;94.60;;;;;;5040108;28;20025;-69
2022/09/07 12:41:01;;;;;;;2.58;1.70;;;21.50;94.50;;;;;;5043350;28;20284;-68
2022/09/07 12:43:43;;;;;;;3.17;1.70;;;21.50;94.50;;;;;;5049911;28;20024;-69
2022/09/07 12:46:32;;;;;;;3.97;1.83;;;21.50;94.50;;;;;;5031209;28;20124;-69
2022/09/07 12:49:04;;;;;;;3.85;2.13;;;21.50;94.50;;;;;;5025325;28;20021;-68
2022/09/07 12:51:36;;;;;;;2.15;1.70;;;21.50;94.50;;;;;;5041117;28;20032;-69
2022/09/07 12:54:04;;;;;;;7.40;1.77;;;21.50;94.50;;;;;;5044503;28;20029;-68
2022/09/07 12:56:54;;;;;;;5.63;1.77;;;21.50;94.60;;;;;;5038898;28;20087;-69
2022/09/07 12:59:38;;;;;;;;;;;21.50;94.50;;;;;;5032453;28;20071;-68
2022/09/07 13:02:24;;;;;;;1.95;1.75;;;21.50;94.50;;;;;;5050102;28;19905;-68
2022/09/07 13:05:18;;;;;;;3.45;1.92;;;21.50;94.50;;;;;;5050918;28;20919;-68
2022/09/07 13:08:29;;;;;;;4.53;1.98;;;21.50;94.50;;;;;;5051407;28;20078;-68
2022/09/07 13:10:55;;;;;;;4.30;1.67;;;21.50;94.50;;;;;;4990824;28;20128;-68
2022/09/07 13:13:26;;;;;;;3.08;1.50;;;21.50;94.50;;;;;;5049488;28;20734;-68
2022/09/07 13:16:04;;;;;;;5.65;1.98;;;21.50;94.50;;;;;;5037813;28;20029;-68
2022/09/07 13:18:29;;;;;;;5.82;1.58;;;21.50;94.50;;;;;;5038526;28;20017;-69
2022/09/07 13:21:07;;;;;;;3.28;1.85;;;21.50;94.50;;;;;;5031722;28;20025;-68
2022/09/07 13:24:01;;;;;;;7.68;1.80;;;21.50;94.50;;;;;;5031490;28;20402;-69
2022/09/07 13:26:58;;;;;;;4.38;1.63;;;21.50;94.50;;;;;;5045757;28;20375;-68
2022/09/07 13:29:48;;;;;;;4.40;1.88;;;21.50;94.50;;;;;;5045291;28;20033;-68
2022/09/07 13:32:31;;;;;;;2.10;1.95;;;21.50;94.50;;;;;;5037450;28;20041;-68
2022/09/07 13:35:00;;;;;;;5.07;2.05;;;21.50;94.50;;;;;;5040467;28;20098;-68
2022/09/07 13:37:27;;;;;;;3.85;1.80;;;21.50;94.50;;;;;;5041073;28;20494;-68
2022/09/07 13:39:57;;;;;;;5.57;2.10;;;21.50;94.50;;;;;;5047584;28;20025;-68
2022/09/07 13:42:31;;;;;;;4.57;1.73;;;21.50;94.50;;;;;;5047927;28;20036;-69
2022/09/07 13:45:00;;;;;;;4.55;1.90;;;21.50;94.50;;;;;;5037571;28;20405;-68
2022/09/07 13:47:51;;;;;;;5.95;1.92;;;21.50;94.50;;;;;;5044858;28;20036;-68
2022/09/07 13:50:30;;;;;;;11.60;1.77;;;21.50;94.50;;;;;;5043722;28;20041;-68
2022/09/07 13:53:01;;;;;;;3.42;1.60;;;21.50;94.50;;;;;;5039333;28;20033;-68
2022/09/07 13:55:33;;;;;;;6.15;1.75;;;21.50;94.50;;;;;;5029700;28;20470;-68
2022/09/07 13:58:28;;;;;;;4.03;2.53;;;21.50;94.40;;;;;;5038310;28;20017;-68
2022/09/07 14:01:11;;;;;;;2.00;1.65;;;21.50;94.80;;;;;;4970554;28;20030;-68
2022/09/07 14:03:53;;;;;;;5.13;1.65;;;21.50;94.40;;;;;;4955707;28;20035;-68
2022/09/07 14:06:23;;;;;;;2.65;1.80;;;21.50;94.40;;;;;;4971615;28;20043;-68
2022/09/07 14:08:54;;;;;;;3.45;1.90;;;21.50;94.40;;;;;;4954219;28;20126;-68
2022/09/07 14:11:23;;;;;;;;;;;21.50;94.40;;;;;;4967290;28;20107;-68
2022/09/07 14:14:18;;;;;;;10.48;2.00;;;21.40;94.40;;;;;;4961890;28;19913;-68
2022/09/07 14:16:48;;;;;;;5.20;1.90;;;21.40;94.40;;;;;;4970533;28;20113;-68
2022/09/07 14:19:23;;;;;;;8.75;1.90;;;21.50;94.40;;;;;;4971153;28;20035;-68
2022/09/07 14:21:59;;;;;;;4.25;2.17;;;21.50;94.40;;;;;;4971359;28;20379;-68
2022/09/07 14:24:38;;;;;;;2.15;1.80;;;21.40;94.40;;;;;;4970655;28;20041;-68
2022/09/07 14:27:06;;;;;;;2.83;1.83;;;21.40;94.40;;;;;;4962416;28;20015;-68
2022/09/07 14:29:34;;;;;;;10.13;1.60;;;21.40;94.40;;;;;;4971118;28;20110;-69
2022/09/07 14:32:02;;;;;;;4.70;1.73;;;21.40;94.40;;;;;;4971164;28;20038;-68
2022/09/07 14:34:32;;;;;;;4.40;1.75;;;21.40;94.40;;;;;;4955073;28;20022;-68
2022/09/07 14:37:02;;;;;;;4.45;1.60;;;21.50;94.40;;;;;;4987128;28;20029;-68
2022/09/07 14:39:29;;;;;;;5.28;2.08;;;21.40;94.40;;;;;;5052669;28;20405;-68
2022/09/07 14:41:57;;;;;;;1.63;1.20;;;21.40;94.40;;;;;;5040402;28;20525;-68
2022/09/07 14:44:41;;;;;;;4.07;1.50;;;21.40;94.40;;;;;;5046599;28;20037;-68
2022/09/07 14:47:19;;;;;;;2.97;1.60;;;21.40;94.40;;;;;;5043535;28;20032;-68
2022/09/07 14:49:52;;;;;;;4.82;1.73;;;21.40;94.40;;;;;;5043748;28;20470;-68
2022/09/07 14:55:32;;;;;;;3.72;1.58;;;21.40;94.30;;;;;;5042688;23;20050;-67
2022/09/07 14:58:13;;;;;;;2.88;1.70;;;21.40;94.30;;;;;;5031845;28;20033;-66
2022/09/07 15:00:46;;;;;;;1.88;1.23;;;21.40;94.30;;;;;;5014431;28;20386;-66
2022/09/07 15:03:31;;;;;;;4.82;1.98;;;21.40;94.30;;;;;;5031581;28;20022;-66
2022/09/07 15:06:02;;;;;;;4.22;1.90;;;21.40;94.30;;;;;;5032609;28;20116;-66
2022/09/07 15:08:38;;;;;;;6.63;1.60;;;21.40;94.20;;;;;;5034200;28;20424;-66
2022/09/07 15:11:20;;;;;;;3.20;1.40;;;21.40;94.20;;;;;;5032632;28;20037;-66
2022/09/07 15:14:00;;;;;;;4.72;1.58;;;21.40;94.20;;;;;;5031933;28;20502;-66
2022/09/07 15:16:35;;;;;;;2.50;1.40;;;21.40;94.20;;;;;;5047091;28;20124;-69
2022/09/07 15:19:14;;;;;;;2.70;1.80;;;21.40;94.20;;;;;;5032614;28;20033;-65
2022/09/07 15:21:40;;;;;;;4.07;1.80;;;21.50;93.70;;;;;;5011001;28;20010;-65
2022/09/07 15:24:06;;;;;;;3.92;1.80;;;21.50;93.50;;;;;;5030335;28;20483;-65
2022/09/07 15:26:53;;;;;;;2.25;1.60;;;21.50;93.60;;;;;;5029400;28;20037;-67
2022/09/07 15:29:20;;;;;;;3.50;1.77;;;21.50;93.60;;;;;;5016437;28;20087;-64
2022/09/07 15:31:47;;;;;;;7.22;1.60;;;21.50;93.60;;;;;;5031309;28;20048;-65
2022/09/07 15:34:15;;;;;;;6.22;1.65;;;21.50;93.60;;;;;;5023644;28;20079;-65
2022/09/07 15:36:46;;;;;;;2.15;1.60;;;21.40;93.60;;;;;;5030058;28;20028;-66
2022/09/07 15:39:16;;;;;;;4.82;1.60;;;21.40;93.70;;;;;;5022941;28;20040;-65
2022/09/07 15:41:42;;;;;;;7.28;1.85;;;21.40;93.70;;;;;;5036954;28;20021;-64
2022/09/07 15:44:08;;;;;;;8.88;2.25;;;21.40;93.70;;;;;;5032039;28;20037;-64
2022/09/07 15:46:34;;;;;;;7.03;1.65;;;21.40;93.70;;;;;;5030730;28;20501;-65
2022/09/07 15:49:01;;;;;;;3.88;1.95;;;21.40;93.80;;;;;;5031124;28;20098;-65
2022/09/07 15:51:27;;;;;;;4.10;1.85;;;21.40;93.80;;;;;;5030862;28;20026;-66
2022/09/07 15:53:53;;;;;;;4.72;2.03;;;21.40;93.80;;;;;;5030996;28;20032;-65
2022/09/07 15:56:19;;;;;;;4.72;2.00;;;21.40;93.90;;;;;;5044408;28;20029;-65
2022/09/07 15:58:51;;;;;;;2.03;1.42;;;21.40;93.90;;;;;;5031084;28;20044;-65
2022/09/07 16:01:17;;;;;;;4.65;2.00;;;21.40;93.90;;;;;;5014467;28;20026;-65
2022/09/07 16:03:42;;;;;;;4.05;1.70;;;21.40;93.90;;;;;;5030133;28;20093;-65
2022/09/07 16:06:09;;;;;;;6.00;1.92;;;21.40;93.90;;;;;;5030003;28;20021;-65
2022/09/07 16:08:35;;;;;;;7.18;1.98;;;21.40;93.90;;;;;;5045936;28;20040;-65
2022/09/07 16:11:15;;;;;;;6.97;1.80;;;21.40;93.90;;;;;;5029977;28;20022;-65
2022/09/07 16:13:41;;;;;;;3.40;1.60;;;21.40;93.90;;;;;;5017455;28;20430;-65
2022/09/07 16:16:07;;;;;;;6.70;1.80;;;21.40;93.90;;;;;;5029710;28;20068;-65
2022/09/07 16:18:34;;;;;;;2.10;1.50;;;21.40;93.90;;;;;;5043039;28;20021;-65
2022/09/07 16:21:08;;;;;;;6.88;2.13;;;21.40;94.20;;;;;;5029989;28;20009;-65
2022/09/07 16:23:34;;;;;;;10.35;1.80;;;21.40;93.90;;;;;;5029704;28;20017;-65
2022/09/07 16:26:01;;;;;;;6.53;1.98;;;21.40;93.90;;;;;;5029395;28;20028;-65
2022/09/07 16:28:27;;;;;;;7.32;1.70;;;21.40;93.90;;;;;;5034449;28;20036;-67
2022/09/07 16:30:53;;;;;;;4.55;1.90;;;21.40;93.90;;;;;;5030126;28;20353;-65
2022/09/07 16:33:19;;;;;;;3.20;1.50;;;21.40;93.90;;;;;;5021571;28;20021;-65
2022/09/07 16:36:07;;;;;;;6.72;1.77;;;21.40;93.90;;;;;;5028816;28;20056;-65
2022/09/07 16:38:33;;;;;;;5.70;1.60;;;21.40;93.80;;;;;;5029627;28;20057;-65
2022/09/07 16:41:01;;;;;;;1.65;1.52;;;21.40;93.80;;;;;;5030189;28;20030;-65
2022/09/07 16:43:27;;;;;;;4.30;1.65;;;21.40;93.80;;;;;;5033899;28;20021;-64
2022/09/07 16:46:03;;;;;;;2.33;1.42;;;21.40;93.80;;;;;;5028720;28;20471;-65
2022/09/07 16:48:34;;;;;;;4.00;1.60;;;21.40;93.80;;;;;;5018356;28;20422;-65
2022/09/07 16:51:00;;;;;;;3.40;1.40;;;21.40;93.80;;;;;;5027531;28;20040;-65
2022/09/07 16:53:27;;;;;;;1.67;1.33;;;21.40;94.10;;;;;;5029766;28;20072;-64
2022/09/07 16:56:00;;;;;;;2.30;1.50;;;21.30;93.80;;;;;;5028957;28;20376;-65
2022/09/07 16:58:29;;;;;;;4.75;1.50;;;21.40;93.80;;;;;;5026274;28;20060;-65
2022/09/07 17:00:55;;;;;;;3.25;1.23;;;21.30;93.80;;;;;;5025713;28;20041;-64
2022/09/07 17:03:21;;;;;;;2.03;1.60;;;21.30;93.80;;;;;;5025567;28;20014;-66
2022/09/07 17:05:46;;;;;;;3.28;1.55;;;21.30;93.80;;;;;;5026817;28;20017;-65
2022/09/07 17:08:12;;;;;;;6.65;1.63;;;21.30;93.90;;;;;;5024781;28;20041;-65
2022/09/07 17:10:37;;;;;;;8.30;1.52;;;21.30;93.90;;;;;;5028694;28;20458;-65
2022/09/07 17:13:03;;;;;;;2.97;1.65;;;21.40;93.90;;;;;;5024771;28;20080;-65
2022/09/07 17:15:31;;;;;;;3.97;1.63;;;21.30;93.90;;;;;;5024396;28;20045;-65
2022/09/07 17:17:56;;;;;;;3.05;1.63;;;21.40;93.90;;;;;;5025864;28;20013;-65
2022/09/07 17:20:22;;;;;;;3.55;1.83;;;21.30;93.90;;;;;;5021032;28;20025;-65
2022/09/07 17:23:31;;;;;;;2.13;1.60;;;21.30;93.90;;;;;;5030482;28;20134;-65
2022/09/07 17:26:07;;;;;;;6.85;1.83;;;21.30;94.00;;;;;;5029992;28;20028;-65
2022/09/07 17:28:34;;;;;;;5.47;1.60;;;21.30;94.00;;;;;;5045999;28;20108;-64
2022/09/07 17:31:10;;;;;;;5.03;2.25;;;21.30;94.00;;;;;;5035334;28;20037;-64
2022/09/07 17:33:37;;;;;;;4.22;1.90;;;21.30;94.00;;;;;;5032010;28;20422;-64
2022/09/07 17:36:08;;;;;;;3.45;2.03;;;21.30;94.00;;;;;;5034228;28;20029;-65
2022/09/07 17:38:34;;;;;;;5.65;2.30;;;21.30;94.40;;;;;;5033989;28;20018;-65
2022/09/07 17:41:20;;;;;;;10.50;2.67;;;21.30;94.10;;;;;;5027577;28;20152;-65
2022/09/07 17:43:46;;;;;;;10.98;2.20;;;21.20;94.00;;;;;;5029741;28;20034;-65
2022/09/07 17:46:18;;;;;;;3.28;2.25;;;21.20;94.00;;;;;;5028344;28;20052;-65
2022/09/07 17:48:45;;;;;;;6.35;2.47;;;21.20;94.00;;;;;;5028881;28;20013;-64
2022/09/07 17:51:11;;;;;;;3.97;2.20;;;21.30;94.10;;;;;;5026607;28;20069;-64
2022/09/07 17:53:38;;;;;;;7.78;2.33;;;21.20;94.10;;;;;;5027720;28;20025;-65
2022/09/07 17:56:05;;;;;;;7.18;1.90;;;21.20;94.10;;;;;;5029546;28;20009;-65
2022/09/07 17:58:34;;;;;;;7.97;2.42;;;21.20;94.10;;;;;;5030135;28;20037;-64
2022/09/07 18:01:05;;;;;;;3.65;2.10;;;21.20;94.10;;;;;;5029814;28;20017;-65
2022/09/07 18:03:31;;;;;;;4.47;2.40;;;21.20;94.10;;;;;;5028053;28;20025;-65
2022/09/07 18:05:58;;;;;;;5.05;2.47;;;21.20;94.10;;;;;;5025055;28;20389;-65
2022/09/07 18:08:24;;;;;;;3.85;2.33;;;21.20;94.10;;;;;;5026267;28;20029;-64